createdAt,value
2019-01-26T00:01:58.051Z,27.60
2019-01-26T00:04:25.734Z,27.60
2019-01-26T00:06:53.480Z,27.60
2019-01-26T00:09:25.922Z,27.60
2019-01-26T00:11:53.858Z,27.60
2019-01-26T00:14:21.551Z,27.70
2019-01-26T00:16:49.177Z,27.60
2019-01-26T00:19:16.847Z,27.60
2019-01-26T00:21:44.437Z,27.60
2019-01-26T00:24:12.051Z,27.60
2019-01-26T00:26:39.655Z,27.60
2019-01-26T00:29:07.328Z,27.60
2019-01-26T00:31:35.060Z,28.00
2019-01-26T00:34:02.784Z,27.70
2019-01-26T00:36:30.500Z,27.60
2019-01-26T00:38:58.164Z,27.60
2019-01-26T00:41:25.927Z,27.80
2019-01-26T00:43:53.545Z,27.60
2019-01-26T00:46:21.200Z,27.80
2019-01-26T00:48:48.834Z,27.70
2019-01-26T00:51:17.329Z,27.50
2019-01-26T00:53:45.088Z,27.60
2019-01-26T00:56:12.755Z,27.60
2019-01-26T00:58:40.345Z,27.60
2019-01-26T01:01:08.085Z,27.60
2019-01-26T01:03:35.711Z,27.60
2019-01-26T01:06:03.349Z,27.60
2019-01-26T01:08:30.987Z,27.60
2019-01-26T01:10:58.696Z,27.60
2019-01-26T01:13:26.558Z,27.50
2019-01-26T01:15:54.144Z,27.60
2019-01-26T01:18:21.864Z,27.60
2019-01-26T01:20:49.605Z,27.60
2019-01-26T01:23:17.249Z,27.60
2019-01-26T01:25:44.970Z,27.50
2019-01-26T01:28:12.555Z,27.60
2019-01-26T01:30:40.317Z,27.60
2019-01-26T01:33:07.970Z,27.60
2019-01-26T01:35:35.634Z,27.60
2019-01-26T01:38:03.346Z,28.10
2019-01-26T01:40:31.053Z,27.50
2019-01-26T01:42:58.674Z,27.60
2019-01-26T01:45:26.403Z,27.60
2019-01-26T01:47:54.075Z,27.60
2019-01-26T01:50:21.705Z,27.60
2019-01-26T01:52:49.297Z,27.50
2019-01-26T01:55:16.984Z,27.60
2019-01-26T01:57:44.673Z,27.50
2019-01-26T02:00:19.683Z,27.50
2019-01-26T02:02:47.378Z,27.50
2019-01-26T02:05:14.999Z,27.50
2019-01-26T02:07:42.678Z,27.60
2019-01-26T02:10:11.760Z,27.60
2019-01-26T02:12:39.367Z,27.60
2019-01-26T02:15:08.161Z,27.60
2019-01-26T02:17:35.835Z,27.60
2019-01-26T02:20:05.092Z,27.60
2019-01-26T02:22:33.648Z,27.60
2019-01-26T02:25:01.502Z,27.60
2019-01-26T02:27:31.023Z,27.60
2019-01-26T02:29:58.679Z,27.50
2019-01-26T02:32:26.290Z,27.60
2019-01-26T02:34:53.999Z,27.60
2019-01-26T02:37:21.661Z,27.60
2019-01-26T02:39:49.340Z,27.60
2019-01-26T02:42:17.072Z,27.60
2019-01-26T02:44:44.714Z,27.80
2019-01-26T02:47:12.423Z,27.70
2019-01-26T02:49:40.127Z,27.90
2019-01-26T02:52:07.847Z,27.60
2019-01-26T02:54:35.526Z,27.60
2019-01-26T02:57:03.202Z,27.60
2019-01-26T02:59:30.809Z,27.60
2019-01-26T03:01:58.557Z,27.70
2019-01-26T03:04:26.259Z,27.80
2019-01-26T03:06:53.941Z,27.60
2019-01-26T03:09:21.615Z,27.60
2019-01-26T03:11:49.303Z,27.60
2019-01-26T03:14:16.965Z,27.60
2019-01-26T03:16:44.612Z,27.60
2019-01-26T03:19:12.233Z,27.60
2019-01-26T03:21:39.828Z,27.60
2019-01-26T03:24:07.472Z,27.60
2019-01-26T03:26:35.124Z,27.60
2019-01-26T03:29:02.791Z,27.50
2019-01-26T03:31:30.423Z,27.60
2019-01-26T03:33:58.080Z,27.50
2019-01-26T03:36:25.808Z,27.60
2019-01-26T03:38:54.710Z,27.60
2019-01-26T03:41:22.398Z,27.60
2019-01-26T03:43:50.057Z,27.60
2019-01-26T03:46:17.684Z,27.60
2019-01-26T03:48:45.352Z,27.60
2019-01-26T03:51:13.028Z,27.60
2019-01-26T03:53:40.676Z,27.60
2019-01-26T03:56:08.277Z,27.60
2019-01-26T03:58:36.061Z,27.60
2019-01-26T04:01:03.757Z,27.60
2019-01-26T04:03:31.448Z,27.50
2019-01-26T04:05:59.057Z,27.50
2019-01-26T04:08:26.699Z,27.60
2019-01-26T04:10:54.421Z,27.50
2019-01-26T04:13:22.038Z,27.60
2019-01-26T04:15:49.654Z,27.60
2019-01-26T04:18:17.333Z,27.60
2019-01-26T04:20:44.962Z,27.60
2019-01-26T04:23:12.594Z,27.60
2019-01-26T04:25:40.339Z,27.60
2019-01-26T04:28:08.050Z,27.60
2019-01-26T04:30:35.714Z,27.60
2019-01-26T04:33:03.293Z,27.60
2019-01-26T04:35:31.036Z,27.60
2019-01-26T04:37:58.781Z,27.60
2019-01-26T04:40:26.425Z,27.60
2019-01-26T04:42:54.035Z,27.60
2019-01-26T04:45:22.102Z,27.60
2019-01-26T04:47:49.743Z,27.60
2019-01-26T04:50:17.995Z,27.60
2019-01-26T04:52:45.698Z,27.80
2019-01-26T04:55:13.415Z,27.60
2019-01-26T04:57:41.078Z,27.80
2019-01-26T05:00:13.054Z,27.70
2019-01-26T05:02:40.699Z,27.80
2019-01-26T05:05:08.359Z,27.70
2019-01-26T05:07:36.071Z,27.70
2019-01-26T05:10:05.235Z,27.90
2019-01-26T05:12:32.899Z,27.60
2019-01-26T05:15:00.502Z,27.60
2019-01-26T05:17:28.138Z,27.90
2019-01-26T05:19:55.875Z,27.80
2019-01-26T05:22:23.531Z,27.70
2019-01-26T05:24:51.224Z,27.70
2019-01-26T05:27:18.966Z,27.70
2019-01-26T05:29:46.725Z,27.60
2019-01-26T05:32:14.451Z,27.60
2019-01-26T05:34:42.059Z,27.60
2019-01-26T05:37:09.718Z,27.60
2019-01-26T05:39:37.393Z,27.60
2019-01-26T05:42:05.025Z,27.60
2019-01-26T05:44:32.677Z,27.60
2019-01-26T05:47:00.343Z,27.60
2019-01-26T05:49:27.937Z,27.60
2019-01-26T05:51:55.549Z,27.60
2019-01-26T05:54:23.246Z,27.60
2019-01-26T05:56:50.924Z,27.60
2019-01-26T05:59:18.627Z,27.60
2019-01-26T06:01:46.256Z,27.60
2019-01-26T06:04:13.924Z,27.60
2019-01-26T06:06:41.667Z,27.60
2019-01-26T06:09:09.349Z,27.60
2019-01-26T06:11:37.017Z,27.60
2019-01-26T06:14:04.673Z,27.60
2019-01-26T06:16:32.338Z,27.60
2019-01-26T06:19:00.012Z,27.60
2019-01-26T06:21:27.634Z,27.60
2019-01-26T06:23:55.299Z,27.60
2019-01-26T06:26:22.963Z,27.60
2019-01-26T06:28:50.625Z,28.00
2019-01-26T06:31:18.204Z,28.00
2019-01-26T06:33:45.867Z,28.00
2019-01-26T06:36:13.541Z,28.10
2019-01-26T06:38:41.249Z,27.90
2019-01-26T06:41:08.909Z,27.60
2019-01-26T06:43:36.643Z,27.60
2019-01-26T06:46:04.236Z,27.60
2019-01-26T06:48:31.835Z,27.60
2019-01-26T06:50:59.532Z,27.60
2019-01-26T06:53:27.230Z,27.60
2019-01-26T06:55:54.837Z,27.60
2019-01-26T06:58:22.485Z,28.20
2019-01-26T07:00:50.085Z,27.60
2019-01-26T07:03:17.747Z,27.60
2019-01-26T07:05:55.643Z,27.60
2019-01-26T07:08:23.245Z,27.60
2019-01-26T07:10:50.838Z,27.60
2019-01-26T07:13:18.548Z,27.60
2019-01-26T07:15:46.208Z,27.60
2019-01-26T07:18:14.020Z,27.60
2019-01-26T07:20:41.627Z,27.80
2019-01-26T07:23:09.214Z,27.70
2019-01-26T07:25:36.860Z,27.70
2019-01-26T07:28:04.529Z,27.90
2019-01-26T07:30:32.191Z,28.10
2019-01-26T07:32:59.779Z,28.10
2019-01-26T07:35:27.389Z,28.20
2019-01-26T07:37:55.056Z,31.20
2019-01-26T07:40:23.250Z,31.50
2019-01-26T07:42:50.852Z,33.00
2019-01-26T07:45:18.490Z,33.10
2019-01-26T07:47:46.108Z,34.00
2019-01-26T07:50:17.977Z,35.40
2019-01-26T07:52:45.687Z,39.10
2019-01-26T07:55:13.347Z,35.60
2019-01-26T07:57:41.154Z,33.90
2019-01-26T08:00:19.181Z,33.30
2019-01-26T08:02:46.896Z,33.20
2019-01-26T08:05:14.505Z,33.20
2019-01-26T08:07:42.095Z,32.70
2019-01-26T08:10:11.436Z,32.80
2019-01-26T08:12:39.104Z,32.20
2019-01-26T08:15:08.588Z,31.90
2019-01-26T08:17:36.246Z,31.60
2019-01-26T08:20:05.792Z,31.50
2019-01-26T08:22:33.470Z,31.50
2019-01-26T08:25:01.047Z,31.50
2019-01-26T08:27:30.470Z,31.60
2019-01-26T08:29:58.120Z,32.40
2019-01-26T08:32:25.773Z,32.50
2019-01-26T08:34:53.520Z,31.80
2019-01-26T08:37:21.207Z,30.50
2019-01-26T08:39:53.530Z,30.00
2019-01-26T08:42:21.828Z,30.00
2019-01-26T08:44:49.457Z,30.00
2019-01-26T08:47:30.932Z,30.20
2019-01-26T08:50:01.989Z,30.30
2019-01-26T08:52:29.705Z,30.00
2019-01-26T08:54:57.300Z,29.80
2019-01-26T08:57:24.903Z,29.50
2019-01-26T08:59:52.519Z,29.50
2019-01-26T09:02:25.592Z,29.00
2019-01-26T09:04:52.831Z,28.80
2019-01-26T09:07:20.426Z,28.30
2019-01-26T09:09:48.072Z,28.50
2019-01-26T09:12:15.711Z,28.40
2019-01-26T09:14:43.403Z,28.40
2019-01-26T09:17:11.052Z,28.50
2019-01-26T09:19:38.781Z,28.10
2019-01-26T09:22:06.449Z,28.50
2019-01-26T09:24:34.098Z,28.20
2019-01-26T09:27:01.784Z,27.70
2019-01-26T09:29:29.444Z,27.70
2019-01-26T09:31:57.150Z,27.90
2019-01-26T09:34:24.810Z,28.20
2019-01-26T09:36:55.706Z,28.30
2019-01-26T09:39:23.344Z,28.50
2019-01-26T09:41:51.112Z,28.60
2019-01-26T09:44:18.726Z,28.60
2019-01-26T09:46:46.426Z,28.60
2019-01-26T09:49:14.157Z,28.60
2019-01-26T09:51:41.923Z,28.60
2019-01-26T09:54:09.618Z,28.70
2019-01-26T09:56:37.266Z,28.90
2019-01-26T09:59:05.034Z,28.90
2019-01-26T10:01:32.705Z,28.90
2019-01-26T10:04:00.412Z,29.00
2019-01-26T10:06:28.186Z,29.20
2019-01-26T10:08:55.874Z,29.30
2019-01-26T10:11:23.505Z,29.20
2019-01-26T10:13:51.127Z,29.10
2019-01-26T10:16:20.078Z,29.10
2019-01-26T10:18:53.471Z,29.10
2019-01-26T10:21:17.148Z,29.20
2019-01-26T10:23:45.006Z,29.10
2019-01-26T10:26:12.660Z,29.20
2019-01-26T10:28:40.301Z,29.20
2019-01-26T10:31:08.034Z,29.20
2019-01-26T10:33:35.658Z,29.40
2019-01-26T10:36:05.078Z,29.50
2019-01-26T10:38:34.417Z,30.30
2019-01-26T10:41:03.708Z,29.90
2019-01-26T10:43:44.762Z,29.80
2019-01-26T10:46:12.422Z,29.90
2019-01-26T10:48:40.127Z,29.90
2019-01-26T10:51:07.730Z,29.70
2019-01-26T10:53:35.474Z,29.90
2019-01-26T10:56:03.106Z,29.90
2019-01-26T10:58:30.766Z,29.90
2019-01-26T11:00:58.413Z,30.00
2019-01-26T11:03:26.172Z,30.00
2019-01-26T11:05:53.783Z,30.00
2019-01-26T11:08:21.506Z,30.20
2019-01-26T11:10:49.139Z,30.10
2019-01-26T11:13:16.800Z,30.10
2019-01-26T11:15:44.388Z,30.00
2019-01-26T11:18:12.070Z,29.90
2019-01-26T11:20:40.983Z,29.90
2019-01-26T11:23:08.682Z,29.80
2019-01-26T11:25:36.359Z,29.90
2019-01-26T11:28:04.066Z,31.40
2019-01-26T11:30:33.455Z,33.00
2019-01-26T11:33:01.054Z,36.10
2019-01-26T11:35:28.706Z,35.50
2019-01-26T11:37:56.318Z,35.80
2019-01-26T11:40:23.949Z,35.30
2019-01-26T11:42:51.705Z,35.20
2019-01-26T11:45:20.993Z,35.30
2019-01-26T11:47:48.602Z,35.20
2019-01-26T11:50:20.430Z,34.20
2019-01-26T11:52:48.070Z,33.70
2019-01-26T11:55:26.584Z,34.10
2019-01-26T11:57:54.300Z,33.10
2019-01-26T12:00:26.349Z,33.10
2019-01-26T12:02:55.649Z,33.00
2019-01-26T12:05:24.887Z,33.10
2019-01-26T12:07:52.554Z,33.10
2019-01-26T12:10:20.171Z,33.10
2019-01-26T12:12:47.845Z,33.10
2019-01-26T12:15:15.511Z,33.00
2019-01-26T12:17:43.173Z,33.00
2019-01-26T12:20:12.260Z,32.90
2019-01-26T12:22:39.887Z,32.80
2019-01-26T12:25:08.306Z,32.70
2019-01-26T12:27:35.988Z,32.60
2019-01-26T12:30:05.110Z,32.70
2019-01-26T12:32:32.789Z,32.70
2019-01-26T12:35:00.390Z,34.00
2019-01-26T12:37:28.067Z,33.50
2019-01-26T12:39:55.681Z,33.10
2019-01-26T12:42:23.302Z,33.10
2019-01-26T12:44:51.026Z,33.10
2019-01-26T12:47:18.701Z,33.10
2019-01-26T12:49:46.351Z,33.10
2019-01-26T12:52:14.026Z,33.10
2019-01-26T12:54:41.779Z,33.10
2019-01-26T12:57:09.474Z,33.10
2019-01-26T12:59:37.218Z,33.10
2019-01-26T13:02:04.844Z,33.10
2019-01-26T13:04:32.520Z,33.10
2019-01-26T13:07:00.199Z,33.00
2019-01-26T13:09:27.886Z,33.10
2019-01-26T13:11:55.470Z,33.10
2019-01-26T13:14:23.134Z,33.00
2019-01-26T13:16:50.754Z,33.10
2019-01-26T13:19:18.403Z,33.10
2019-01-26T13:21:46.079Z,33.00
2019-01-26T13:24:13.801Z,33.10
2019-01-26T13:26:41.514Z,33.10
2019-01-26T13:29:09.309Z,33.10
2019-01-26T13:31:37.001Z,33.10
2019-01-26T13:34:04.752Z,34.20
2019-01-26T13:36:32.463Z,35.60
2019-01-26T13:39:00.141Z,35.30
2019-01-26T13:41:27.976Z,36.10
2019-01-26T13:43:55.680Z,35.50
2019-01-26T13:46:23.370Z,35.50
2019-01-26T13:48:51.019Z,36.10
2019-01-26T13:51:18.617Z,35.90
2019-01-26T13:53:46.202Z,35.20
2019-01-26T13:56:13.877Z,34.90
2019-01-26T13:58:42.418Z,34.10
2019-01-26T14:01:10.074Z,33.30
2019-01-26T14:03:38.462Z,33.90
2019-01-26T14:06:06.176Z,33.90
2019-01-26T14:08:33.947Z,34.60
2019-01-26T14:11:01.595Z,35.50
2019-01-26T14:13:29.256Z,35.40
2019-01-26T14:15:56.937Z,35.40
2019-01-26T14:18:24.609Z,35.10
2019-01-26T14:20:52.348Z,35.10
2019-01-26T14:23:20.022Z,34.90
2019-01-26T14:25:47.720Z,35.10
2019-01-26T14:28:15.411Z,34.40
2019-01-26T14:30:44.855Z,34.60
2019-01-26T14:33:12.541Z,34.80
2019-01-26T14:35:40.243Z,35.30
2019-01-26T14:38:07.832Z,35.10
2019-01-26T14:40:35.437Z,35.20
2019-01-26T14:43:03.249Z,34.70
2019-01-26T14:45:30.863Z,34.40
2019-01-26T14:47:58.537Z,34.40
2019-01-26T14:50:26.292Z,34.40
2019-01-26T14:52:53.923Z,34.20
2019-01-26T14:55:22.809Z,34.30
2019-01-26T14:57:50.505Z,34.00
2019-01-26T15:00:19.588Z,35.60
2019-01-26T15:02:47.326Z,36.50
2019-01-26T15:05:14.994Z,36.40
2019-01-26T15:07:42.849Z,36.50
2019-01-26T15:10:11.096Z,36.50
2019-01-26T15:12:38.770Z,36.10
2019-01-26T15:15:08.110Z,36.00
2019-01-26T15:17:35.782Z,36.00
2019-01-26T15:20:06.093Z,34.90
2019-01-26T15:22:33.308Z,35.10
2019-01-26T15:25:00.908Z,35.00
2019-01-26T15:27:28.553Z,34.80
2019-01-26T15:29:56.130Z,34.40
2019-01-26T15:32:23.732Z,34.40
2019-01-26T15:34:51.400Z,34.30
2019-01-26T15:37:19.038Z,34.00
2019-01-26T15:39:46.640Z,33.80
2019-01-26T15:42:14.306Z,45.00
2019-01-26T15:44:41.922Z,43.20
2019-01-26T15:47:09.657Z,40.00
2019-01-26T15:49:37.332Z,39.40
2019-01-26T15:52:04.912Z,38.50
2019-01-26T15:54:32.574Z,39.40
2019-01-26T15:57:00.190Z,39.40
2019-01-26T15:59:27.931Z,38.10
2019-01-26T16:01:55.659Z,39.30
2019-01-26T16:04:23.257Z,39.40
2019-01-26T16:06:50.947Z,38.00
2019-01-26T16:09:18.657Z,37.10
2019-01-26T16:11:46.307Z,36.40
2019-01-26T16:14:13.956Z,38.10
2019-01-26T16:16:41.566Z,36.60
2019-01-26T16:19:09.254Z,37.00
2019-01-26T16:21:37.064Z,39.50
2019-01-26T16:24:04.804Z,39.70
2019-01-26T16:26:32.413Z,39.80
2019-01-26T16:29:00.030Z,38.50
2019-01-26T16:31:27.725Z,38.10
2019-01-26T16:33:55.514Z,37.90
2019-01-26T16:36:23.180Z,38.60
2019-01-26T16:38:50.790Z,38.90
2019-01-26T16:41:18.538Z,39.00
2019-01-26T16:43:46.170Z,39.00
2019-01-26T16:46:13.982Z,38.60
2019-01-26T16:48:41.642Z,38.50
2019-01-26T16:51:09.248Z,39.80
2019-01-26T16:53:36.923Z,39.70
2019-01-26T16:56:04.617Z,39.70
2019-01-26T16:58:32.293Z,39.60
2019-01-26T17:00:59.997Z,39.60
2019-01-26T17:03:27.613Z,38.90
2019-01-26T17:05:55.428Z,38.30
2019-01-26T17:08:23.090Z,38.10
2019-01-26T17:10:50.667Z,38.70
2019-01-26T17:13:18.282Z,38.50
2019-01-26T17:15:46.010Z,38.20
2019-01-26T17:18:14.169Z,38.10
2019-01-26T17:20:42.143Z,37.70
2019-01-26T17:23:09.946Z,37.50
2019-01-26T17:25:37.704Z,37.30
2019-01-26T17:28:05.390Z,38.10
2019-01-26T17:30:34.329Z,39.60
2019-01-26T17:33:07.323Z,39.80
2019-01-26T17:35:31.428Z,39.50
2019-01-26T17:37:59.135Z,39.10
2019-01-26T17:40:26.843Z,38.00
2019-01-26T17:42:54.516Z,38.00
2019-01-26T17:45:22.205Z,38.20
2019-01-26T17:47:50.140Z,37.40
2019-01-26T17:50:22.451Z,36.70
2019-01-26T17:52:50.459Z,36.10
2019-01-26T17:55:18.186Z,26.90
2019-01-26T17:57:46.098Z,26.90
2019-01-26T18:00:15.673Z,27.10
2019-01-26T18:02:43.480Z,26.10
2019-01-26T18:05:11.536Z,28.50
2019-01-26T18:07:39.735Z,29.20
2019-01-26T18:10:15.153Z,27.60
2019-01-26T18:12:43.662Z,29.50
2019-01-26T18:15:12.521Z,28.60
2019-01-26T18:17:40.214Z,26.80
2019-01-26T18:20:09.523Z,29.90
2019-01-26T18:22:37.222Z,30.70
2019-01-26T18:25:06.319Z,30.50
2019-01-26T18:27:33.957Z,30.90
2019-01-26T18:30:01.678Z,31.20
2019-01-26T18:32:29.471Z,31.40
2019-01-26T18:34:57.153Z,31.40
2019-01-26T18:37:25.204Z,31.40
2019-01-26T18:39:53.102Z,31.00
2019-01-26T18:42:20.785Z,31.00
2019-01-26T18:44:48.476Z,30.90
2019-01-26T18:47:16.242Z,30.90
2019-01-26T18:49:43.985Z,30.90
2019-01-26T18:52:11.638Z,31.00
2019-01-26T18:54:39.375Z,31.10
2019-01-26T18:57:07.052Z,31.30
2019-01-26T18:59:34.835Z,31.40
2019-01-26T19:02:02.437Z,31.50
2019-01-26T19:04:30.377Z,31.50
2019-01-26T19:06:58.118Z,32.20
2019-01-26T19:09:25.784Z,32.40
2019-01-26T19:11:53.435Z,32.50
2019-01-26T19:14:21.124Z,32.60
2019-01-26T19:16:48.797Z,32.70
2019-01-26T19:19:16.517Z,33.20
2019-01-26T19:21:44.200Z,33.20
2019-01-26T19:24:11.891Z,33.20
2019-01-26T19:26:39.558Z,33.20
2019-01-26T19:29:07.194Z,33.30
2019-01-26T19:31:34.948Z,33.30
2019-01-26T19:34:02.622Z,33.30
2019-01-26T19:36:30.421Z,33.30
2019-01-26T19:38:58.092Z,33.30
2019-01-26T19:41:25.730Z,33.30
2019-01-26T19:43:53.399Z,33.30
2019-01-26T19:46:21.112Z,33.30
2019-01-26T19:48:48.843Z,33.30
2019-01-26T19:51:16.466Z,33.30
2019-01-26T19:53:44.157Z,33.30
2019-01-26T19:56:11.892Z,33.30
2019-01-26T19:58:39.584Z,33.30
2019-01-26T20:01:07.315Z,33.30
2019-01-26T20:03:35.012Z,33.30
2019-01-26T20:06:02.880Z,33.30
2019-01-26T20:08:30.644Z,33.30
2019-01-26T20:10:58.329Z,33.30
2019-01-26T20:13:26.081Z,33.30
2019-01-26T20:15:53.795Z,33.40
2019-01-26T20:18:21.630Z,33.40
2019-01-26T20:20:49.338Z,33.30
2019-01-26T20:23:17.025Z,33.30
2019-01-26T20:25:44.717Z,33.30
2019-01-26T20:28:12.415Z,33.20
2019-01-26T20:30:40.120Z,33.30
2019-01-26T20:33:07.760Z,33.30
2019-01-26T20:35:36.352Z,40.70
2019-01-26T20:38:03.969Z,38.00
2019-01-26T20:40:44.286Z,39.30
2019-01-26T20:43:09.800Z,37.30
2019-01-26T20:45:37.442Z,37.00
2019-01-26T20:48:05.179Z,37.30
2019-01-26T20:50:32.869Z,37.00
2019-01-26T20:53:00.591Z,37.00
2019-01-26T20:55:28.280Z,37.10
2019-01-26T20:57:55.965Z,37.00
2019-01-26T21:00:24.456Z,37.00
2019-01-26T21:02:52.151Z,37.00
2019-01-26T21:05:19.888Z,36.80
2019-01-26T21:07:47.556Z,37.00
2019-01-26T21:10:16.410Z,37.00
2019-01-26T21:12:44.121Z,37.10
2019-01-26T21:15:11.765Z,37.20
2019-01-26T21:17:39.464Z,37.20
2019-01-26T21:20:14.343Z,37.20
2019-01-26T21:22:42.070Z,37.00
2019-01-26T21:25:10.699Z,37.00
2019-01-26T21:27:38.374Z,37.00
2019-01-26T21:30:08.991Z,37.10
2019-01-26T21:32:36.920Z,37.00
2019-01-26T21:35:06.361Z,36.90
2019-01-26T21:37:34.063Z,36.90
2019-01-26T21:40:01.902Z,36.80
2019-01-26T21:42:29.599Z,36.80
2019-01-26T21:44:57.208Z,36.70
2019-01-26T21:47:24.886Z,36.20
2019-01-26T21:49:52.642Z,36.80
2019-01-26T21:52:20.419Z,36.80
2019-01-26T21:54:51.922Z,36.70
2019-01-26T21:57:19.642Z,36.90
2019-01-26T21:59:47.329Z,36.80
2019-01-26T22:02:15.100Z,36.80
2019-01-26T22:04:42.791Z,36.60
2019-01-26T22:07:10.540Z,36.70
2019-01-26T22:09:38.273Z,36.60
2019-01-26T22:12:06.025Z,36.80
2019-01-26T22:14:35.580Z,36.60
2019-01-26T22:17:03.282Z,36.40
2019-01-26T22:19:30.876Z,36.20
2019-01-26T22:21:58.530Z,36.10
2019-01-26T22:24:26.297Z,36.40
2019-01-26T22:26:54.265Z,36.20
2019-01-26T22:29:22.162Z,36.20
2019-01-26T22:31:57.090Z,35.90
2019-01-26T22:34:26.600Z,35.90
2019-01-26T22:36:54.871Z,35.80
2019-01-26T22:39:24.394Z,35.70
2019-01-26T22:41:59.717Z,35.60
2019-01-26T22:44:27.466Z,35.60
2019-01-26T22:46:55.146Z,35.50
2019-01-26T22:49:23.038Z,35.30
2019-01-26T22:51:53.467Z,35.30
2019-01-26T22:54:20.157Z,35.20
2019-01-26T22:56:47.848Z,35.40
2019-01-26T22:59:15.598Z,35.30
2019-01-26T23:01:43.270Z,35.50
2019-01-26T23:04:18.535Z,35.40
2019-01-26T23:06:47.782Z,35.50
2019-01-26T23:09:17.138Z,35.30
2019-01-26T23:11:46.480Z,35.30
2019-01-26T23:14:18.453Z,35.30
2019-01-26T23:16:47.874Z,34.90
2019-01-26T23:19:17.161Z,35.00
2019-01-26T23:21:49.124Z,35.00
2019-01-26T23:24:21.444Z,35.00
2019-01-26T23:27:06.971Z,35.00
2019-01-26T23:29:54.140Z,34.80
2019-01-26T23:32:21.831Z,34.70
2019-01-26T23:34:49.562Z,34.50
2019-01-26T23:37:17.184Z,34.50
2019-01-26T23:39:44.887Z,34.50
2019-01-26T23:42:12.604Z,34.40
2019-01-26T23:44:40.346Z,34.40
2019-01-26T23:47:08.012Z,34.30
2019-01-26T23:49:35.633Z,34.20
2019-01-26T23:52:03.255Z,34.20
2019-01-26T23:54:30.976Z,34.00
2019-01-26T23:56:58.591Z,34.10
2019-01-26T23:59:26.199Z,34.10
